KOAK/OAK METAR and TAF weather

Enter ICAO airport designator
Station Type Date Time Source
KOAK METAR 2022/06/27 08:53 UTC NOAA

KOAK 270853Z 31005KT 10SM BKN007 14/12 A3005 RMK AO2 SLP175 T01390117 57004


Station Type Date Time Source
KOAK Decoded METAR 2022/06/27 08:53 UTC NOAA

METRO OAKLAND INTERNATIONAL AIRPORT , CA, United States (KOAK) 37-43N 122-14W 26M
Jun 27, 2022 - 04:53 AM EDT / 2022.06.27 0853 UTC
Wind: from the NW (310 degrees) at 6 MPH (5 KT):0
Visibility: 10 mile(s):0
Sky conditions: mostly cloudy
Temperature: 57.0 F (13.9 C)
Dew Point: 53.1 F (11.7 C)
Relative Humidity: 86%
Pressure (altimeter): 30.05 in. Hg (1017 hPa)
Pressure tendency: 0.01 inches (0.4 hPa) lower than three hours ago
ob: KOAK 270853Z 31005KT 10SM BKN007 14/12 A3005 RMK AO2 SLP175 T01390117 57004
cycle: 9

Station Type Date Time Source
KOAK TAF 2022/06/27 06:24 UTC NOAA

TAF KOAK 270521Z 2706/2812 29010KT P6SM FEW004 SCT010
FM270800 29005KT P6SM OVC006
FM271600 31008KT P6SM FEW006 SCT010
FM271800 30012G19KT P6SM SKC
FM280500 27009KT P6SM FEW005

Example: see airport list